Time;durP1;ratioP1;P1;durP2;ratioP2;P2;SDS_P1;SDS_P2;PMS_P1;PMS_P2;Temp;Humidity;BMP_temperature;BMP_pressure;BME280_temperature;BME280_humidity;BME280_pressure;Samples;Min_cycle;Max_cycle;Signal;HPM_P1;HPM_P2
2023/01/06 00:01:33;;;;;;;1.33;1.23;;;11.50;99.90;;;11.55;100.00;101225.13;5008620;28;20668;-66
2023/01/06 00:04:02;;;;;;;3.20;1.43;;;11.50;99.90;;;11.56;100.00;101223.34;5010490;28;20672;-65
2023/01/06 00:06:29;;;;;;;4.77;1.67;;;11.50;99.90;;;11.54;100.00;101220.00;5004942;28;20707;-67
2023/01/06 00:09:00;;;;;;;4.40;1.00;;;11.50;99.90;;;11.51;100.00;101222.81;5003642;28;20740;-66
2023/01/06 00:11:28;;;;;;;1.27;1.20;;;11.40;99.90;;;11.47;100.00;101214.34;5006931;28;20715;-65
2023/01/06 00:13:55;;;;;;;1.80;1.70;;;11.40;99.90;;;11.42;100.00;101212.94;4992753;28;20629;-68
2023/01/06 00:16:23;;;;;;;2.80;1.80;;;11.30;99.90;;;11.38;100.00;101203.66;4992165;28;21228;-70
2023/01/06 00:18:58;;;;;;;1.90;1.80;;;11.30;99.90;;;11.34;100.00;101207.41;4996620;28;20654;-66
2023/01/06 00:21:26;;;;;;;2.50;2.03;;;11.20;99.90;;;11.33;100.00;101208.34;4998769;28;20629;-66
2023/01/06 00:23:53;;;;;;;2.33;1.93;;;11.20;99.90;;;11.33;100.00;101216.19;4993582;28;20629;-68
2023/01/06 00:26:20;;;;;;;3.10;2.67;;;11.20;99.90;;;11.32;100.00;101211.91;5001285;28;20681;-66
2023/01/06 00:28:47;;;;;;;3.17;2.13;;;11.20;99.90;;;11.27;100.00;101206.97;4977562;28;20629;-69
2023/01/06 00:31:16;;;;;;;3.23;2.43;;;11.20;99.90;;;11.28;100.00;101202.59;4997651;28;21074;-66
2023/01/06 00:33:43;;;;;;;2.80;2.60;;;11.10;99.90;;;11.23;100.00;101213.34;5004189;28;20654;-70
2023/01/06 00:36:12;;;;;;;1.97;1.87;;;11.10;99.90;;;11.23;100.00;101209.88;4963220;28;20633;-67
2023/01/06 00:38:40;;;;;;;2.53;2.40;;;11.10;99.90;;;11.22;100.00;101198.59;4993535;28;20646;-68
2023/01/06 00:43:57;;;;;;;2.37;2.20;;;11.10;99.90;;;11.18;100.00;101196.31;5012804;28;20625;-67
2023/01/06 00:46:27;;;;;;;2.47;2.37;;;11.10;99.90;;;11.19;100.00;101197.97;5009051;28;20633;-65
2023/01/06 00:48:57;;;;;;;2.63;1.93;;;11.00;99.90;;;11.18;100.00;101202.34;4985878;28;20714;-65
2023/01/06 00:51:38;;;;;;;3.60;3.07;;;11.00;99.90;;;11.19;100.00;101200.56;5000078;28;20646;-69
2023/01/06 00:54:08;;;;;;;2.97;2.70;;;11.00;99.90;;;11.17;100.00;101194.59;5006168;28;20644;-68
2023/01/06 00:56:37;;;;;;;4.03;2.73;;;11.00;99.90;;;11.16;100.00;101198.19;4999859;28;20668;-66
2023/01/06 00:59:05;;;;;;;4.53;2.33;;;11.00;99.90;;;11.18;100.00;101193.69;4995291;28;21065;-67
2023/01/06 01:01:34;;;;;;;3.10;2.40;;;11.00;99.90;;;11.20;100.00;101189.19;5010949;28;20629;-65
2023/01/06 01:04:01;;;;;;;2.60;2.40;;;11.10;99.90;;;11.20;100.00;101195.22;5002335;28;20668;-65
2023/01/06 01:06:28;;;;;;;3.03;2.70;;;11.10;99.90;;;11.19;100.00;101193.56;5002437;28;20633;-66
2023/01/06 01:08:58;;;;;;;1.70;1.60;;;11.10;99.90;;;11.20;100.00;101184.78;5001866;28;20869;-69
2023/01/06 01:12:27;;;;;;;4.60;3.13;;;11.10;99.90;;;11.22;100.00;101182.09;5007345;28;20633;-65
2023/01/06 01:14:22;;;;;;;3.60;2.83;;;11.10;99.90;;;11.21;100.00;101169.97;4995276;28;20629;-66
2023/01/06 01:16:49;;;;;;;2.33;2.10;;;11.10;99.90;;;11.21;100.00;101173.41;5003076;28;20637;-67
2023/01/06 01:19:17;;;;;;;3.00;2.27;;;11.10;99.90;;;11.20;100.00;101174.34;5004709;28;20653;-66
2023/01/06 01:21:44;;;;;;;4.37;2.97;;;11.10;99.90;;;11.18;100.00;101178.00;4981659;28;21058;-67
2023/01/06 01:24:11;;;;;;;3.27;2.60;;;11.10;99.90;;;11.18;100.00;101167.56;5011035;28;20641;-66
2023/01/06 01:26:38;;;;;;;2.87;1.60;;;11.10;99.90;;;11.19;100.00;101177.91;5001417;28;20666;-70
2023/01/06 01:29:05;;;;;;;3.57;2.63;;;11.10;99.90;;;11.18;100.00;101180.63;5011270;28;21269;-65
2023/01/06 01:31:33;;;;;;;5.60;3.20;;;11.00;99.90;;;11.19;100.00;101177.91;5007949;28;20618;-65
2023/01/06 01:34:00;;;;;;;4.50;2.77;;;11.10;99.90;;;11.21;100.00;101183.03;5004110;28;20632;-65
2023/01/06 01:36:27;;;;;;;2.97;2.30;;;11.10;99.90;;;11.23;100.00;101181.13;4999845;28;21281;-67
2023/01/06 01:38:56;;;;;;;1.40;1.27;;;11.10;99.90;;;11.22;100.00;101177.69;4995881;28;20646;-67
2023/01/06 01:41:25;;;;;;;2.87;2.67;;;11.10;99.90;;;11.20;100.00;101178.75;4998567;28;20732;-66
2023/01/06 01:44:41;;;;;;;2.90;2.23;;;11.10;99.90;;;11.18;100.00;101175.41;5012591;28;20712;-66
2023/01/06 01:47:11;;;;;;;1.80;1.73;;;11.10;99.90;;;11.22;100.00;101176.88;5010713;28;20648;-64
2023/01/06 01:49:40;;;;;;;2.40;1.93;;;11.10;99.90;;;11.23;100.00;101179.38;4993871;28;20687;-66
2023/01/06 01:52:09;;;;;;;2.00;1.90;;;11.10;99.90;;;11.25;100.00;101181.88;4975912;28;20666;-66
2023/01/06 01:54:38;;;;;;;2.47;2.27;;;11.10;99.90;;;11.22;100.00;101187.31;5007060;28;20618;-65
2023/01/06 01:57:15;;;;;;;2.50;2.30;;;11.10;99.90;;;11.21;100.00;101188.25;5010897;28;20672;-66
2023/01/06 01:59:43;;;;;;;2.50;2.30;;;11.10;99.90;;;11.20;100.00;101191.81;4997927;28;20638;-65
2023/01/06 02:02:13;;;;;;;2.43;1.97;;;11.10;99.90;;;11.21;100.00;101183.88;4975216;28;20639;-69
2023/01/06 02:04:44;;;;;;;1.57;1.47;;;11.10;99.90;;;11.23;100.00;101183.75;4997109;28;20637;-71
2023/01/06 02:07:11;;;;;;;5.07;2.00;;;11.10;99.90;;;11.24;100.00;101182.84;5004047;28;21057;-66
2023/01/06 02:10:04;;;;;;;2.30;2.10;;;11.10;99.90;;;11.26;100.00;101187.03;5007722;28;20645;-66
2023/01/06 02:12:31;;;;;;;3.63;3.33;;;11.10;99.90;;;11.30;100.00;101188.50;4998660;28;20738;-68
2023/01/06 02:14:58;;;;;;;5.37;3.60;;;11.20;99.90;;;11.33;100.00;101196.09;4977518;28;20623;-66
2023/01/06 02:18:02;;;;;;;5.03;3.13;;;11.20;99.90;;;11.38;100.00;101203.66;4974133;28;21240;-69
2023/01/06 02:20:53;;;;;;;2.50;2.40;;;11.20;99.90;;;11.43;100.00;101205.03;4997806;28;20633;-68
2023/01/06 02:23:38;;;;;;;3.40;3.10;;;11.30;99.90;;;11.46;100.00;101201.34;5011006;28;20629;-68
2023/01/06 02:26:47;;;;;;;3.60;3.30;;;11.30;99.90;;;11.47;100.00;101195.19;5010515;28;21027;-69
2023/01/06 02:29:59;;;;;;;6.47;3.07;;;11.30;99.90;;;11.49;100.00;101195.94;4990244;28;20661;-67
2023/01/06 02:33:00;;;;;;;4.53;2.63;;;11.40;99.90;;;11.51;100.00;101188.84;4974631;28;20665;-68
2023/01/06 02:35:50;;;;;;;3.17;2.90;;;11.40;99.90;;;11.52;100.00;101188.72;4996130;28;20634;-65
2023/01/06 02:38:25;;;;;;;5.57;2.83;;;11.40;99.90;;;11.55;100.00;101191.13;4991431;28;20725;-68
2023/01/06 02:41:17;;;;;;;3.00;2.80;;;11.40;99.90;;;11.56;100.00;101184.13;5010246;28;20648;-65
2023/01/06 02:44:13;;;;;;;4.07;3.00;;;11.50;99.90;;;11.53;100.00;101176.50;5004463;28;20656;-67
2023/01/06 02:47:14;;;;;;;3.80;3.30;;;11.50;99.90;;;11.52;100.00;101183.50;4985744;28;20671;-66
2023/01/06 02:49:57;;;;;;;3.77;2.90;;;11.50;99.90;;;11.52;100.00;101185.28;5017722;23;20698;-68
2023/01/06 02:52:46;;;;;;;3.10;2.80;;;11.50;99.90;;;11.53;100.00;101185.19;5030370;28;20743;-67
2023/01/06 02:55:26;;;;;;;2.47;2.30;;;11.50;99.90;;;11.54;100.00;101183.41;5011599;28;20682;-65
2023/01/06 02:58:11;;;;;;;5.03;3.60;;;11.50;99.90;;;11.55;100.00;101185.06;5012998;28;21373;-66
2023/01/06 03:00:44;;;;;;;3.10;2.80;;;11.50;99.90;;;11.57;100.00;101183.19;5000056;28;20733;-68
2023/01/06 03:03:24;;;;;;;2.83;2.50;;;11.50;99.90;;;11.57;100.00;101177.97;4993275;28;20625;-66
2023/01/06 03:05:57;;;;;;;3.17;2.97;;;11.50;99.90;;;11.56;100.00;101178.91;4992421;28;20639;-66
2023/01/06 03:08:28;;;;;;;2.20;2.07;;;11.50;99.90;;;11.52;100.00;101172.22;4994002;28;20645;-68
2023/01/06 03:10:56;;;;;;;3.10;2.17;;;11.50;99.90;;;11.49;100.00;101175.03;4990683;28;20633;-66
2023/01/06 03:13:51;;;;;;;2.43;2.27;;;11.40;99.90;;;11.44;100.00;101171.88;4986001;28;20665;-66
2023/01/06 03:16:19;;;;;;;2.83;2.37;;;11.40;99.90;;;11.42;100.00;101166.75;5002628;28;20998;-68
2023/01/06 03:18:49;;;;;;;2.50;2.30;;;11.30;99.90;;;11.41;100.00;101169.50;5009981;28;20657;-67
2023/01/06 03:21:20;;;;;;;2.00;1.90;;;11.30;99.90;;;11.41;100.00;101164.25;4981161;28;20688;-66
2023/01/06 03:23:48;;;;;;;1.93;1.83;;;11.30;99.90;;;11.38;100.00;101164.44;4989695;28;20641;-66
2023/01/06 03:26:15;;;;;;;2.57;2.27;;;11.30;99.90;;;11.34;100.00;101153.38;4984169;28;20780;-67
2023/01/06 03:28:42;;;;;;;2.10;2.00;;;11.30;99.90;;;11.32;100.00;101149.19;4986723;28;20698;-66
2023/01/06 03:31:38;;;;;;;2.47;2.27;;;11.30;99.90;;;11.29;100.00;101152.00;4993774;28;20594;-66
2023/01/06 03:34:14;;;;;;;2.90;2.30;;;11.20;99.90;;;11.32;100.00;101157.03;5009789;28;20693;-68
2023/01/06 03:37:31;;;;;;;8.20;2.60;;;11.20;99.90;;;11.33;100.00;101154.31;4992712;28;20710;-67
2023/01/06 03:40:15;;;;;;;2.70;2.53;;;11.20;99.90;;;11.36;100.00;101161.09;4952483;28;20674;-67
2023/01/06 03:43:16;;;;;;;2.57;2.40;;;11.30;99.90;;;11.38;100.00;101156.63;4968387;28;21040;-67
2023/01/06 03:46:08;;;;;;;2.40;2.30;;;11.30;99.90;;;11.39;100.00;101159.13;4995462;28;20628;-68
2023/01/06 03:49:08;;;;;;;2.70;2.40;;;11.30;99.90;;;11.41;100.00;101153.81;5005309;28;21353;-67
2023/01/06 03:51:54;;;;;;;2.63;2.30;;;11.30;99.90;;;11.43;100.00;101154.53;5004290;28;20671;-67
2023/01/06 03:54:39;;;;;;;2.30;2.10;;;11.30;99.90;;;11.44;100.00;101161.44;4989461;28;20677;-67
2023/01/06 03:57:36;;;;;;;2.93;2.70;;;11.30;99.90;;;11.47;100.00;101156.00;5010801;28;21023;-66
2023/01/06 04:00:19;;;;;;;2.77;2.60;;;11.40;99.90;;;11.50;100.00;101153.16;4986931;28;20656;-68
2023/01/06 04:02:46;;;;;;;4.43;2.37;;;11.40;99.90;;;11.53;100.00;101147.75;4987858;28;20638;-67
2023/01/06 04:05:21;;;;;;;3.80;2.40;;;11.50;99.90;;;11.55;100.00;101149.31;4999604;28;21225;-69
2023/01/06 04:07:48;;;;;;;1.77;1.67;;;11.50;99.90;;;11.54;100.00;101146.81;4987627;28;20647;-67
2023/01/06 04:10:18;;;;;;;2.10;2.00;;;11.50;99.90;;;11.53;100.00;101139.91;5012778;28;21418;-68
2023/01/06 04:12:45;;;;;;;2.57;2.37;;;11.50;99.90;;;11.51;100.00;101139.19;5013350;28;20893;-66
2023/01/06 04:15:22;;;;;;;2.60;2.23;;;11.50;99.90;;;11.48;100.00;101147.22;5015136;28;20613;-67
2023/01/06 04:17:50;;;;;;;2.37;2.27;;;11.40;99.90;;;11.50;100.00;101145.31;4996616;28;21204;-66
2023/01/06 04:20:20;;;;;;;5.30;2.50;;;11.40;99.90;;;11.49;100.00;101141.91;4998211;28;21042;-67
2023/01/06 04:22:47;;;;;;;6.37;2.30;;;11.40;99.90;;;11.49;100.00;101134.06;4990343;28;20617;-67
2023/01/06 04:25:14;;;;;;;2.57;2.47;;;11.40;99.90;;;11.48;100.00;101136.75;5012556;28;21049;-66
2023/01/06 04:27:42;;;;;;;3.00;2.80;;;11.40;99.90;;;11.50;100.00;101132.25;5014263;28;20984;-67
2023/01/06 04:30:10;;;;;;;2.90;2.70;;;11.40;99.90;;;11.53;100.00;101139.91;5012191;28;20651;-64
2023/01/06 04:32:38;;;;;;;2.80;1.83;;;11.50;99.90;;;11.54;100.00;101133.75;5012517;28;20648;-68
2023/01/06 04:35:06;;;;;;;2.37;2.17;;;11.50;99.90;;;11.50;100.00;101127.03;5012972;28;20613;-68
2023/01/06 04:37:33;;;;;;;2.20;2.10;;;11.40;99.90;;;11.46;100.00;101115.13;5013213;28;21189;-67
2023/01/06 04:40:00;;;;;;;3.80;2.50;;;11.40;99.90;;;11.44;100.00;101109.16;5012410;28;20632;-68
2023/01/06 04:42:27;;;;;;;2.07;1.87;;;11.40;99.90;;;11.43;100.00;101100.50;5010602;28;20641;-66
2023/01/06 04:44:54;;;;;;;3.00;2.67;;;11.40;99.90;;;11.43;100.00;101104.91;5006385;28;20642;-67
2023/01/06 04:47:21;;;;;;;2.30;2.20;;;11.40;99.90;;;11.39;100.00;101099.03;5007588;28;20637;-65
2023/01/06 04:49:47;;;;;;;2.57;1.83;;;11.30;99.90;;;11.40;100.00;101097.25;5012322;28;20641;-66
2023/01/06 04:52:15;;;;;;;2.53;2.43;;;11.30;99.90;;;11.39;100.00;101101.63;5012152;28;21204;-68
2023/01/06 04:54:42;;;;;;;2.67;2.20;;;11.30;99.90;;;11.39;100.00;101090.38;5013269;28;20661;-67
2023/01/06 04:57:09;;;;;;;2.47;1.97;;;11.30;99.90;;;11.37;100.00;101097.47;5011518;28;20643;-67
2023/01/06 04:59:35;;;;;;;2.63;1.97;;;11.30;99.90;;;11.35;100.00;101096.75;4994673;28;20658;-66
2023/01/06 05:02:02;;;;;;;2.30;2.10;;;11.30;99.90;;;11.33;100.00;101096.81;4995145;28;20626;-67
2023/01/06 05:04:29;;;;;;;4.70;2.10;;;11.30;99.90;;;11.29;100.00;101105.81;5012181;28;20636;-66
2023/01/06 05:07:12;;;;;;;2.10;2.00;;;11.20;99.90;;;11.28;100.00;101087.66;4988448;28;20740;-68
2023/01/06 05:09:39;;;;;;;3.03;2.83;;;11.20;99.90;;;11.28;100.00;101108.53;5003686;28;21021;-67
2023/01/06 05:12:07;;;;;;;2.60;2.40;;;11.20;99.90;;;11.30;100.00;101109.28;5011955;28;20640;-66
2023/01/06 05:14:34;;;;;;;2.90;2.27;;;11.20;99.90;;;11.33;100.00;101109.09;5012828;28;20657;-67
2023/01/06 05:17:00;;;;;;;1.93;1.87;;;11.20;99.90;;;11.34;100.00;101113.34;5004025;28;21026;-67
2023/01/06 05:19:27;;;;;;;2.70;2.50;;;11.20;99.90;;;11.36;100.00;101121.91;4989003;28;20653;-68
2023/01/06 05:21:54;;;;;;;2.07;1.97;;;11.30;99.90;;;11.40;100.00;101108.53;5003214;28;20637;-68
2023/01/06 05:24:21;;;;;;;2.50;2.30;;;11.30;99.90;;;11.38;100.00;101115.66;4993802;28;21007;-67
2023/01/06 05:26:48;;;;;;;2.90;2.70;;;11.40;99.90;;;11.40;100.00;101123.38;5011439;28;20633;-67
2023/01/06 05:29:16;;;;;;;3.40;3.03;;;11.30;99.90;;;11.40;100.00;101131.22;5002716;28;20666;-67
2023/01/06 05:31:43;;;;;;;2.70;2.60;;;11.30;99.90;;;11.42;100.00;101130.19;5005613;28;21228;-68
2023/01/06 05:34:10;;;;;;;3.03;2.77;;;11.30;99.90;;;11.44;100.00;101127.47;4994670;28;20663;-66
2023/01/06 05:36:37;;;;;;;2.70;2.00;;;11.40;99.90;;;11.48;100.00;101128.91;5011574;28;20674;-67
2023/01/06 05:39:04;;;;;;;1.53;1.43;;;11.40;99.90;;;11.49;100.00;101133.22;5012311;28;20632;-68
2023/01/06 05:41:31;;;;;;;2.60;2.10;;;11.40;99.90;;;11.46;100.00;101128.19;5011697;28;20633;-68
2023/01/06 05:43:58;;;;;;;1.57;1.57;;;11.40;99.90;;;11.41;100.00;101125.91;5013208;28;21219;-67
2023/01/06 05:46:25;;;;;;;1.37;1.33;;;11.40;99.90;;;11.32;100.00;101126.53;5011358;28;20664;-66
2023/01/06 05:48:51;;;;;;;1.70;1.60;;;11.30;99.90;;;11.29;100.00;101124.09;4995054;28;21295;-66
2023/01/06 05:51:18;;;;;;;1.60;1.50;;;11.20;99.90;;;11.29;100.00;101129.31;5011840;28;20668;-66
2023/01/06 05:53:47;;;;;;;1.83;1.73;;;11.20;99.90;;;11.32;100.00;101125.69;5010616;28;20668;-67
2023/01/06 05:56:17;;;;;;;1.60;1.50;;;11.20;99.90;;;11.29;100.00;101128.47;4994298;28;20601;-69
2023/01/06 05:58:47;;;;;;;1.50;1.40;;;11.20;99.90;;;11.26;100.00;101126.94;4994500;28;21009;-67
2023/01/06 06:01:28;;;;;;;1.50;1.50;;;11.20;99.90;;;11.25;100.00;101122.63;5012110;28;20644;-67
2023/01/06 06:03:55;;;;;;;2.90;1.40;;;11.20;99.90;;;11.24;100.00;101120.13;4975698;28;20620;-66
2023/01/06 06:06:24;;;;;;;1.50;1.47;;;11.20;99.90;;;11.20;100.00;101118.69;5003369;28;20629;-69
2023/01/06 06:08:51;;;;;;;1.40;1.30;;;11.10;99.90;;;11.21;100.00;101125.56;5011920;28;20649;-66
2023/01/06 06:11:19;;;;;;;1.27;1.17;;;11.10;99.90;;;11.19;100.00;101125.66;5005031;28;20669;-67
2023/01/06 06:13:52;;;;;;;1.20;1.20;;;11.10;99.90;;;11.16;100.00;101125.03;5008666;28;20666;-68
2023/01/06 06:16:25;;;;;;;1.23;1.20;;;11.10;99.90;;;11.15;100.00;101124.19;4982922;28;20622;-67
2023/01/06 06:18:56;;;;;;;1.33;1.33;;;11.10;99.90;;;11.12;100.00;101128.78;5003911;28;21083;-67
2023/01/06 06:21:29;;;;;;;1.00;1.00;;;11.00;99.90;;;11.13;100.00;101133.06;4988246;28;20680;-67
2023/01/06 06:23:57;;;;;;;1.30;1.23;;;11.00;99.90;;;11.12;100.00;101123.53;4993210;28;20637;-69
2023/01/06 06:26:25;;;;;;;1.10;1.10;;;11.00;99.90;;;11.13;100.00;101130.47;4994704;28;20633;-68
2023/01/06 06:28:52;;;;;;;0.70;0.70;;;11.00;99.90;;;11.15;100.00;101129.41;5010438;28;20707;-68
2023/01/06 06:31:23;;;;;;;0.60;0.60;;;11.10;99.90;;;11.10;100.00;101126.25;5011851;28;20633;-66
2023/01/06 06:33:52;;;;;;;0.87;0.87;;;11.00;99.90;;;11.10;100.00;101122.81;5010023;28;21025;-66
2023/01/06 06:36:19;;;;;;;0.97;0.97;;;11.00;99.90;;;11.10;100.00;101134.09;4992838;28;20626;-68
2023/01/06 06:38:49;;;;;;;1.23;0.80;;;11.00;99.90;;;11.09;100.00;101134.22;4992423;28;20664;-68
2023/01/06 06:41:17;;;;;;;0.60;0.60;;;11.00;99.90;;;11.10;100.00;101139.31;5010643;28;21228;-67
2023/01/06 06:43:44;;;;;;;1.33;1.33;;;11.00;99.90;;;11.11;100.00;101140.16;5011002;28;20641;-66
2023/01/06 06:46:11;;;;;;;1.03;1.03;;;11.00;99.90;;;11.11;100.00;101146.25;5010623;28;20630;-67
2023/01/06 06:48:38;;;;;;;1.00;0.70;;;11.00;99.90;;;11.13;100.00;101143.50;4998537;28;21219;-67
2023/01/06 06:51:09;;;;;;;1.40;1.10;;;11.00;99.90;;;11.14;100.00;101145.22;5008440;28;20649;-66
2023/01/06 06:53:36;;;;;;;1.63;0.93;;;11.00;99.90;;;11.18;100.00;101139.66;4998664;28;21222;-67
2023/01/06 06:56:05;;;;;;;1.50;1.40;;;11.10;99.90;;;11.20;100.00;101137.78;4977833;28;20717;-66
2023/01/06 06:58:33;;;;;;;1.23;1.23;;;11.10;99.90;;;11.20;100.00;101152.63;4972272;28;21046;-67
2023/01/06 07:01:12;;;;;;;1.00;1.00;;;11.10;99.90;;;11.21;100.00;101164.72;4984174;28;20634;-66
2023/01/06 07:03:40;;;;;;;0.90;0.90;;;11.10;99.90;;;11.24;100.00;101165.38;4990044;28;20692;-67
2023/01/06 07:06:11;;;;;;;0.90;0.90;;;11.20;99.90;;;11.28;100.00;101163.41;5011666;28;20634;-66
2023/01/06 07:08:41;;;;;;;0.97;0.97;;;11.20;99.90;;;11.31;100.00;101168.41;4993194;28;20676;-68
2023/01/06 07:11:08;;;;;;;0.70;0.70;;;11.20;99.90;;;11.35;100.00;101183.78;5010836;28;20654;-67
2023/01/06 07:13:35;;;;;;;0.40;0.40;;;11.30;99.90;;;11.29;100.00;101167.66;5010810;28;21326;-67
2023/01/06 07:16:02;;;;;;;0.50;0.50;;;11.30;99.90;;;11.28;100.00;101176.47;4990836;28;21006;-67
2023/01/06 07:18:29;;;;;;;0.53;0.53;;;11.20;99.90;;;11.19;100.00;101174.44;5003184;28;20638;-64
2023/01/06 07:20:56;;;;;;;0.60;0.60;;;11.20;99.90;;;11.17;100.00;101173.72;4972980;28;20629;-67
2023/01/06 07:23:24;;;;;;;0.70;0.70;;;11.10;99.90;;;11.10;100.00;101169.81;5006859;28;21208;-68
2023/01/06 07:25:56;;;;;;;0.50;0.50;;;11.00;99.90;;;11.10;100.00;101172.44;5009469;28;20633;-67
2023/01/06 07:28:24;;;;;;;0.77;0.77;;;11.00;99.90;;;11.13;100.00;101173.09;5004913;28;20657;-68
2023/01/06 07:30:52;;;;;;;0.80;0.80;;;11.00;99.90;;;11.16;100.00;101178.09;4995907;28;20609;-69
2023/01/06 07:33:19;;;;;;;3.33;1.20;;;11.10;99.90;;;11.16;100.00;101185.94;4996683;28;20605;-67
2023/01/06 07:35:51;;;;;;;0.90;0.90;;;11.10;99.90;;;11.15;100.00;101178.19;4997191;28;20638;-67
2023/01/06 07:38:18;;;;;;;1.00;1.00;;;11.10;99.90;;;11.17;100.00;101179.78;4996655;28;20633;-68
2023/01/06 07:40:44;;;;;;;0.43;0.43;;;11.10;99.90;;;11.18;100.00;101185.84;5007547;28;20629;-66
2023/01/06 07:43:12;;;;;;;0.50;0.50;;;11.20;99.90;;;11.14;100.00;101185.19;5009160;28;20647;-68
2023/01/06 07:45:38;;;;;;;0.50;0.50;;;11.10;99.90;;;11.15;100.00;101183.44;5004519;28;21173;-68
2023/01/06 07:48:06;;;;;;;0.67;0.60;;;11.10;99.90;;;11.13;100.00;101182.69;4990208;28;20683;-67
2023/01/06 07:50:33;;;;;;;0.70;0.70;;;11.10;99.90;;;11.06;100.00;101179.63;5009101;28;20629;-67
2023/01/06 07:53:01;;;;;;;0.40;0.40;;;11.00;99.90;;;11.04;99.90;101183.28;4991921;28;20638;-67
2023/01/06 07:55:29;;;;;;;0.30;0.30;;;11.00;99.90;;;11.07;98.72;101194.38;4991133;28;21241;-69
2023/01/06 07:58:00;;;;;;;0.30;0.30;;;11.00;99.90;;;11.09;98.96;101191.66;5013488;28;20733;-69
2023/01/06 08:00:26;;;;;;;0.47;0.40;;;11.00;99.90;;;11.10;97.84;101190.72;4992287;28;20633;-69
2023/01/06 08:02:53;;;;;;;0.93;0.60;;;11.00;99.90;;;11.11;97.44;101200.25;5006925;28;20721;-66
2023/01/06 08:05:21;;;;;;;0.50;0.50;;;11.00;99.90;;;11.16;97.67;101206.00;5004011;28;20700;-68
2023/01/06 08:07:47;;;;;;;0.50;0.50;;;11.10;99.90;;;11.20;97.22;101207.47;4992069;28;20626;-68
2023/01/06 08:10:15;;;;;;;0.47;0.40;;;11.10;99.90;;;11.22;96.43;101198.59;5003088;28;20663;-69
2023/01/06 08:12:42;;;;;;;0.40;0.40;;;11.20;99.90;;;11.29;96.63;101204.25;5013923;28;21173;-67
2023/01/06 08:15:10;;;;;;;0.47;0.47;;;11.20;99.90;;;11.31;95.18;101204.97;5012657;28;20754;-67
2023/01/06 08:17:37;;;;;;;0.60;0.60;;;11.20;99.90;;;11.31;96.57;101202.38;4993027;28;20717;-67
2023/01/06 08:20:04;;;;;;;0.87;0.40;;;11.20;99.90;;;11.36;95.14;101205.53;4985707;28;20657;-67
2023/01/06 08:22:31;;;;;;;0.30;0.30;;;11.30;99.90;;;11.38;94.58;101203.66;5013423;28;20636;-67
2023/01/06 08:24:58;;;;;;;0.50;0.50;;;11.30;99.90;;;11.43;93.02;101212.88;5013323;28;20628;-67
2023/01/06 08:27:26;;;;;;;0.40;0.40;;;11.40;99.90;;;11.51;91.64;101220.19;5011901;28;21099;-68
2023/01/06 08:29:54;;;;;;;0.73;0.40;;;11.40;99.90;;;11.55;90.34;101206.81;4987947;28;20741;-68
2023/01/06 08:32:21;;;;;;;0.80;0.52;;;11.50;99.90;;;11.62;90.24;101202.03;4993776;28;20751;-67
2023/01/06 08:34:48;;;;;;;0.50;0.50;;;11.60;99.90;;;11.63;89.19;101201.91;5014053;28;20222;-67
2023/01/06 08:37:15;;;;;;;0.83;0.83;;;11.60;99.90;;;11.64;89.16;101198.38;5012473;28;20639;-69
2023/01/06 08:39:43;;;;;;;0.40;0.40;;;11.60;99.90;;;11.68;87.87;101193.78;4985175;28;21026;-68
2023/01/06 08:42:10;;;;;;;0.80;0.70;;;11.60;99.90;;;11.70;88.00;101194.53;4987073;28;20637;-67
2023/01/06 08:44:37;;;;;;;0.70;0.57;;;11.60;99.90;;;11.77;87.94;101201.03;4996715;28;20761;-68
2023/01/06 08:47:04;;;;;;;0.50;0.50;;;11.70;99.90;;;11.86;88.37;101204.78;5008244;28;20645;-67
2023/01/06 08:49:31;;;;;;;0.40;0.40;;;11.80;99.90;;;11.88;87.43;101203.75;5014194;28;20710;-69
2023/01/06 08:51:58;;;;;;;0.43;0.43;;;11.80;99.90;;;11.89;85.82;101201.94;5011435;28;20636;-68
2023/01/06 08:54:28;;;;;;;0.43;0.40;;;11.80;99.90;;;11.91;86.68;101202.69;5012662;28;20675;-67
2023/01/06 08:56:56;;;;;;;1.00;0.50;;;11.80;99.90;;;11.93;85.76;101196.41;4995366;28;20618;-66
2023/01/06 08:59:23;;;;;;;1.43;0.43;;;11.90;99.90;;;11.99;85.66;101198.59;5013265;28;21040;-67
2023/01/06 09:01:50;;;;;;;0.50;0.50;;;11.90;99.90;;;12.04;85.64;101190.44;5012044;28;20703;-69
2023/01/06 09:04:17;;;;;;;0.50;0.50;;;12.00;99.90;;;12.08;86.51;101189.28;4995616;28;20632;-66
2023/01/06 09:06:46;;;;;;;0.60;0.50;;;12.00;99.90;;;12.12;86.36;101191.56;5012064;28;21003;-67
2023/01/06 09:09:13;;;;;;;0.50;0.50;;;12.10;99.90;;;12.17;86.43;101181.66;5007832;28;20852;-66
2023/01/06 09:11:42;;;;;;;0.50;0.50;;;12.10;99.90;;;12.18;86.73;101183.31;4994594;28;20629;-68
2023/01/06 09:14:12;;;;;;;2.93;0.50;;;12.10;99.90;;;12.19;85.99;101185.00;4993731;28;20672;-66
2023/01/06 09:16:40;;;;;;;0.30;0.30;;;12.10;99.90;;;12.17;86.10;101176.41;4987837;28;20618;-68
2023/01/06 09:19:09;;;;;;;0.47;0.40;;;12.10;99.90;;;12.07;87.34;101167.53;4994713;28;20653;-67
2023/01/06 09:21:36;;;;;;;0.40;0.40;;;12.10;99.90;;;12.04;87.92;101172.13;4994890;28;21003;-67
2023/01/06 09:24:04;;;;;;;0.50;0.50;;;12.00;99.90;;;12.01;88.54;101182.81;5009228;28;21211;-68
2023/01/06 09:26:34;;;;;;;0.53;0.50;;;12.00;99.90;;;11.93;88.61;101180.72;4997897;28;20625;-69
2023/01/06 09:29:01;;;;;;;0.40;0.40;;;11.90;99.90;;;11.90;89.10;101201.03;5001376;28;20646;-68
2023/01/06 09:31:28;;;;;;;0.60;0.60;;;11.80;99.90;;;11.89;89.50;101191.50;5013142;28;20628;-67
2023/01/06 09:33:55;;;;;;;0.47;0.47;;;11.80;99.90;;;11.90;90.08;101209.72;5012171;28;20994;-67
2023/01/06 09:36:22;;;;;;;0.50;0.50;;;11.80;99.90;;;11.89;90.50;101221.09;5012100;28;20652;-66
2023/01/06 09:38:49;;;;;;;0.50;0.50;;;11.80;99.90;;;11.87;90.89;101216.91;5011210;28;21018;-66
2023/01/06 09:42:08;;;;;;;0.40;0.40;;;11.80;99.90;;;11.83;90.55;101226.75;4993918;28;20724;-67
2023/01/06 09:44:55;;;;;;;0.50;0.50;;;11.80;99.90;;;11.74;90.32;101216.91;5002705;28;21214;-66
2023/01/06 09:47:54;;;;;;;0.60;0.60;;;11.70;99.90;;;11.73;90.59;101215.25;5010517;28;20636;-67
2023/01/06 09:50:37;;;;;;;0.30;0.30;;;11.70;99.90;;;11.74;90.37;101211.69;5010591;28;20648;-67
2023/01/06 09:53:16;;;;;;;1.13;0.97;;;11.70;99.90;;;11.77;91.20;101224.56;4992598;28;20728;-67
2023/01/06 09:55:51;;;;;;;0.40;0.40;;;11.60;99.90;;;11.82;90.60;101221.63;5010132;28;20665;-66
2023/01/06 09:58:30;;;;;;;0.70;0.70;;;11.70;99.90;;;11.89;90.54;101215.88;4992292;28;21047;-66
2023/01/06 10:01:03;;;;;;;0.60;0.60;;;11.80;99.90;;;11.93;90.49;101209.47;4989779;28;20645;-67
2023/01/06 10:03:31;;;;;;;0.30;0.30;;;11.80;99.90;;;11.99;89.45;101216.09;4994003;28;21255;-67
2023/01/06 10:06:38;;;;;;;0.60;0.60;;;11.90;99.90;;;12.07;88.25;101214.63;5011874;28;21195;-66
2023/01/06 10:09:42;;;;;;;0.80;0.80;;;11.90;99.90;;;12.20;88.76;101214.59;4994043;28;20653;-68
2023/01/06 10:12:30;;;;;;;0.70;0.70;;;12.00;99.90;;;12.26;89.06;101206.34;4994424;28;20644;-67
2023/01/06 10:15:23;;;;;;;0.53;0.47;;;12.10;99.90;;;12.30;86.57;101213.84;4986930;28;20673;-68
2023/01/06 10:18:19;;;;;;;0.40;0.40;;;12.20;99.90;;;12.27;86.68;101208.81;4991907;28;20648;-68
2023/01/06 10:21:02;;;;;;;0.93;0.93;;;12.20;99.90;;;12.23;87.25;101207.38;5011130;28;20637;-67
2023/01/06 10:24:11;;;;;;;0.80;0.80;;;12.10;99.90;;;12.26;87.17;101209.78;4994122;28;21012;-67
2023/01/06 10:26:50;;;;;;;0.70;0.70;;;12.20;99.90;;;12.26;86.30;101215.03;4993623;28;21341;-67
2023/01/06 10:29:19;;;;;;;0.40;0.40;;;12.20;99.90;;;12.32;86.75;101225.06;4979128;28;21235;-67
2023/01/06 10:31:48;;;;;;;0.70;0.70;;;12.20;99.90;;;12.33;83.80;101220.63;4989947;28;20645;-68
2023/01/06 10:34:24;;;;;;;0.33;0.33;;;12.30;99.90;;;12.42;83.12;101220.84;4983306;28;20665;-67